Au Sable, Michigan
Current Conditions -  °F | °C
As of 7:34 PM on Saturday 25 Oct 2014 (Local Time) from KOSC Reporting Station
Clear Clear  
Wind Chill: 12°   Ceiling: Unl
Heat Index: 12°   Visibility: 10mi
Dew Point:   Wind: 10mph
Humidity: 45%   Direction: 280°W
Pressure: 29.69"   Gusts: 18mph
Location:  44.4539°N, 83.4813°W
Report Text: KOSC 252334Z AUTO 28009G16KT 10SM CLR 12/00 A2969 RMK AO2 T01210005
Loading
Personal Weather Stations






























Interactive Weather Map
Tropical Storm Tracking
New forecast layout! Learn more

10-Day Weather Forecast

Advertisements
Track Severe Weather on mobile